Time;durP1;ratioP1;P1;durP2;ratioP2;P2;SDS_P1;SDS_P2;PMS_P1;PMS_P2;Temp;Humidity;BMP_temperature;BMP_pressure;BME280_temperature;BME280_humidity;BME280_pressure;Samples;Min_cycle;Max_cycle;Signal;HPM_P1;HPM_P2
2023/05/15 00:00:46;;;;;;;;;;;10.30;99.90;;;;;;5049261;28;19998;-64
2023/05/15 00:03:17;;;;;;;;;;;10.30;99.90;;;;;;5065818;28;20023;-64
2023/05/15 00:05:44;;;;;;;;;;;10.40;99.90;;;;;;5066769;28;19924;-64
2023/05/15 00:08:16;;;;;;;;;;;10.40;99.90;;;;;;5069518;28;19928;-64
2023/05/15 00:10:48;;;;;;;;;;;10.50;99.90;;;;;;5062000;28;19974;-64
2023/05/15 00:13:20;;;;;;;;;;;10.50;99.90;;;;;;5063444;28;19929;-64
2023/05/15 00:15:46;;;;;;;;;;;10.50;99.90;;;;;;5059879;28;19928;-64
2023/05/15 00:18:18;;;;;;;;;;;10.50;99.90;;;;;;5060919;28;19932;-64
2023/05/15 00:20:51;;;;;;;;;;;10.50;99.90;;;;;;5063246;28;20493;-64
2023/05/15 00:23:23;;;;;;;;;;;10.50;99.90;;;;;;5068269;28;19925;-64
2023/05/15 00:25:54;;;;;;;;;;;10.50;99.90;;;;;;5065201;28;19932;-64
2023/05/15 00:28:26;;;;;;;;;;;10.50;99.90;;;;;;5063066;28;19997;-64
2023/05/15 00:30:58;;;;;;;;;;;10.50;99.90;;;;;;5063720;28;19978;-64
2023/05/15 00:33:31;;;;;;;;;;;10.50;99.90;;;;;;5068085;28;19929;-64
2023/05/15 00:36:03;;;;;;;;;;;10.50;99.90;;;;;;5041567;28;19925;-64
2023/05/15 00:38:35;;;;;;;;;;;10.50;99.90;;;;;;5067245;28;20392;-64
2023/05/15 00:41:09;;;;;;;;;;;10.50;99.90;;;;;;5061513;28;19931;-64
2023/05/15 00:43:37;;;;;;;;;;;10.50;99.90;;;;;;5066751;28;20400;-64
2023/05/15 00:46:11;;;;;;;;;;;10.50;99.90;;;;;;5067715;28;19978;-64
2023/05/15 00:48:43;;;;;;;;;;;10.50;99.90;;;;;;5061596;28;19925;-64
2023/05/15 00:51:15;;;;;;;;;;;10.50;99.90;;;;;;5079763;28;21258;-64
2023/05/15 00:53:50;;;;;;;;;;;10.40;99.90;;;;;;5063249;28;20021;-64
2023/05/15 00:56:23;;;;;;;;;;;10.40;99.90;;;;;;5058263;28;19924;-64
2023/05/15 00:58:55;;;;;;;;;;;10.50;99.90;;;;;;5059131;28;20363;-64
2023/05/15 01:01:32;;;;;;;;;;;10.50;99.90;;;;;;5065449;28;19928;-64
2023/05/15 01:04:03;;;;;;;;;;;10.50;99.90;;;;;;5059522;28;19936;-64
2023/05/15 01:06:35;;;;;;;;;;;10.50;99.90;;;;;;5064838;28;19929;-64
2023/05/15 01:09:03;;;;;;;;;;;10.50;99.90;;;;;;5059088;28;19929;-64
2023/05/15 01:11:36;;;;;;;;;;;10.50;99.90;;;;;;5069656;28;19974;-64
2023/05/15 01:14:04;;;;;;;;;;;10.40;99.90;;;;;;5059371;28;20386;-64
2023/05/15 01:16:32;;;;;;;;;;;10.40;99.90;;;;;;5061409;28;19925;-64
2023/05/15 01:19:04;;;;;;;;;;;10.30;99.90;;;;;;5060315;28;19932;-64
2023/05/15 01:21:31;;;;;;;;;;;10.20;99.90;;;;;;5058109;28;19933;-64
2023/05/15 01:24:05;;;;;;;;;;;10.10;99.90;;;;;;5058953;28;19924;-64
2023/05/15 01:26:40;;;;;;;;;;;10.10;99.90;;;;;;5047504;28;19933;-64
2023/05/15 01:29:27;;;;;;;;;;;10.00;99.90;;;;;;5064388;28;19935;-64
2023/05/15 01:32:05;;;;;;;;;;;10.00;99.90;;;;;;5053323;28;19937;-64
2023/05/15 01:34:52;;;;;;;;;;;10.00;99.90;;;;;;5060792;28;19963;-64
2023/05/15 01:37:23;;;;;;;;;;;9.90;99.90;;;;;;5041712;28;20008;-64
2023/05/15 01:39:59;;;;;;;;;;;9.90;99.90;;;;;;5061961;28;20698;-64
2023/05/15 01:42:29;;;;;;;;;;;9.90;99.90;;;;;;5059570;28;19924;-64
2023/05/15 01:45:03;;;;;;;;;;;9.90;99.90;;;;;;5058307;28;20466;-64
2023/05/15 01:47:40;;;;;;;;;;;9.80;99.90;;;;;;5071224;28;19979;-64
2023/05/15 01:50:13;;;;;;;;;;;9.80;99.90;;;;;;5074797;28;19925;-64
2023/05/15 01:52:51;;;;;;;;;;;9.80;99.90;;;;;;5056792;28;19974;-64
2023/05/15 01:55:25;;;;;;;;;;;9.80;99.90;;;;;;5062595;28;19931;-64
2023/05/15 01:58:00;;;;;;;;;;;9.80;99.90;;;;;;5066254;28;19948;-64
2023/05/15 02:00:27;;;;;;;;;;;9.90;99.90;;;;;;5061735;28;20352;-64
2023/05/15 02:02:55;;;;;;;;;;;9.90;99.90;;;;;;5065744;28;19925;-64
2023/05/15 02:05:28;;;;;;;;;;;10.00;99.90;;;;;;5069841;28;20287;-64
2023/05/15 02:07:55;;;;;;;;;;;10.00;99.90;;;;;;5064130;28;20392;-64
2023/05/15 02:10:22;;;;;;;;;;;10.10;99.90;;;;;;5060711;28;20289;-64
2023/05/15 02:12:54;;;;;;;;;;;10.10;99.90;;;;;;5056941;28;19925;-64
2023/05/15 02:15:26;;;;;;;;;;;10.10;99.90;;;;;;5062095;28;19924;-64
2023/05/15 02:17:53;;;;;;;;;;;10.10;99.90;;;;;;5055151;28;19929;-64
2023/05/15 02:20:24;;;;;;;;;;;10.10;99.90;;;;;;5061732;28;19986;-64
2023/05/15 02:22:56;;;;;;;;;;;10.10;99.90;;;;;;5054520;28;19978;-64
2023/05/15 02:25:33;;;;;;;;;;;10.00;99.90;;;;;;5064289;28;19929;-64
2023/05/15 02:28:09;;;;;;;;;;;10.10;99.90;;;;;;5052289;28;19931;-64
2023/05/15 02:30:41;;;;;;;;;;;10.10;99.90;;;;;;5063256;28;19936;-64
2023/05/15 02:33:23;;;;;;;;;;;10.10;99.90;;;;;;5061246;28;19983;-64
2023/05/15 02:35:57;;;;;;;;;;;10.00;99.90;;;;;;5073663;28;19925;-64
2023/05/15 02:38:28;;;;;;;;;;;10.00;99.90;;;;;;5057042;28;20702;-64
2023/05/15 02:40:55;;;;;;;;;;;10.00;99.90;;;;;;5059101;28;19935;-65
2023/05/15 02:43:28;;;;;;;;;;;10.00;99.90;;;;;;5071238;28;19924;-64
2023/05/15 02:45:59;;;;;;;;;;;10.00;99.90;;;;;;5068608;28;19924;-64
2023/05/15 02:48:33;;;;;;;;;;;10.00;99.90;;;;;;5064592;28;19978;-64
2023/05/15 02:51:05;;;;;;;;;;;10.00;99.90;;;;;;5063564;28;19928;-64
2023/05/15 02:53:33;;;;;;;;;;;10.00;99.90;;;;;;5061364;28;19928;-64
2023/05/15 02:56:01;;;;;;;;;;;10.00;99.90;;;;;;5059364;28;19932;-64
2023/05/15 02:58:28;;;;;;;;;;;10.00;99.90;;;;;;5051305;28;19983;-64
2023/05/15 03:00:59;;;;;;;;;;;10.00;99.90;;;;;;5058713;28;19971;-64
2023/05/15 03:03:31;;;;;;;;;;;10.00;99.90;;;;;;5059963;28;19928;-64
2023/05/15 03:06:03;;;;;;;;;;;10.00;99.90;;;;;;5051396;28;19930;-64
2023/05/15 03:08:29;;;;;;;;;;;10.00;99.90;;;;;;5070528;28;19925;-64
2023/05/15 03:10:56;;;;;;;;;;;10.00;99.90;;;;;;5067094;28;19928;-64
2023/05/15 03:13:28;;;;;;;;;;;10.00;99.90;;;;;;5063929;28;19928;-64
2023/05/15 03:15:55;;;;;;;;;;;10.00;99.90;;;;;;5062143;28;19994;-64
2023/05/15 03:18:27;;;;;;;;;;;10.00;99.90;;;;;;5071028;28;19928;-64
2023/05/15 03:20:58;;;;;;;;;;;10.00;99.90;;;;;;5066385;28;20393;-64
2023/05/15 03:23:30;;;;;;;;;;;10.00;99.90;;;;;;5065094;28;19951;-64
2023/05/15 03:26:02;;;;;;;;;;;10.00;99.90;;;;;;5052573;28;19928;-64
2023/05/15 03:28:34;;;;;;;;;;;10.00;99.90;;;;;;5080046;28;19932;-64
2023/05/15 03:31:07;;;;;;;;;;;10.00;99.90;;;;;;5059450;28;19925;-64
2023/05/15 03:33:39;;;;;;;;;;;10.00;99.90;;;;;;5069382;28;19924;-64
2023/05/15 03:36:06;;;;;;;;;;;10.00;99.90;;;;;;5065099;28;19929;-64
2023/05/15 03:38:33;;;;;;;;;;;10.00;99.90;;;;;;5069930;28;19939;-66
2023/05/15 03:41:07;;;;;;;;;;;10.00;99.90;;;;;;5063469;28;19934;-64
2023/05/15 03:43:38;;;;;;;;;;;10.00;99.90;;;;;;5065135;28;19924;-64
2023/05/15 03:46:10;;;;;;;;;;;10.00;99.90;;;;;;5065324;28;19976;-64
2023/05/15 03:48:41;;;;;;;;;;;10.00;99.90;;;;;;5064674;28;19935;-64
2023/05/15 03:51:08;;;;;;;;;;;10.00;99.90;;;;;;5065581;28;19924;-64
2023/05/15 03:53:40;;;;;;;;;;;10.00;99.90;;;;;;5068832;28;20384;-64
2023/05/15 03:56:11;;;;;;;;;;;10.00;99.90;;;;;;5059368;28;19925;-64
2023/05/15 03:58:43;;;;;;;;;;;10.00;99.90;;;;;;5067994;28;20003;-64
2023/05/15 04:01:15;;;;;;;;;;;9.90;99.90;;;;;;5063144;28;19925;-64
2023/05/15 04:03:46;;;;;;;;;;;10.00;99.90;;;;;;5066306;28;20541;-65
2023/05/15 04:06:18;;;;;;;;;;;10.00;99.90;;;;;;5064321;28;19977;-65
2023/05/15 04:08:50;;;;;;;;;;;10.00;99.90;;;;;;5063804;28;19925;-64
2023/05/15 04:11:22;;;;;;;;;;;9.90;99.90;;;;;;5063835;28;19932;-64
2023/05/15 04:13:54;;;;;;;;;;;9.90;99.90;;;;;;5061405;28;20058;-64
2023/05/15 04:16:25;;;;;;;;;;;10.00;99.90;;;;;;5067704;28;19970;-64
2023/05/15 04:18:52;;;;;;;;;;;10.00;99.90;;;;;;5063544;28;19928;-64
2023/05/15 04:21:24;;;;;;;;;;;10.00;99.90;;;;;;5062454;28;19932;-64
2023/05/15 04:23:55;;;;;;;;;;;10.00;99.90;;;;;;5072717;28;19928;-65
2023/05/15 04:26:27;;;;;;;;;;;10.00;99.90;;;;;;5064480;28;19929;-64
2023/05/15 04:28:59;;;;;;;;;;;10.00;99.90;;;;;;5066766;28;19970;-64
2023/05/15 04:31:26;;;;;;;;;;;10.00;99.90;;;;;;5069308;28;19936;-64
2023/05/15 04:33:58;;;;;;;;;;;10.00;99.90;;;;;;5066790;28;20313;-64
2023/05/15 04:36:30;;;;;;;;;;;10.00;99.90;;;;;;5061907;28;19932;-64
2023/05/15 04:39:02;;;;;;;;;;;10.00;99.90;;;;;;5065224;28;19929;-64
2023/05/15 04:41:29;;;;;;;;;;;10.00;99.90;;;;;;5067273;28;19928;-65
2023/05/15 04:44:00;;;;;;;;;;;10.00;99.90;;;;;;5063653;28;20382;-64
2023/05/15 04:46:33;;;;;;;;;;;10.00;99.90;;;;;;5062989;28;19932;-64
2023/05/15 04:49:05;;;;;;;;;;;10.00;99.90;;;;;;5066754;28;20011;-64
2023/05/15 04:51:32;;;;;;;;;;;10.00;99.90;;;;;;5058105;28;19932;-64
2023/05/15 04:54:04;;;;;;;;;;;10.00;99.90;;;;;;5059588;28;20019;-64
2023/05/15 04:56:35;;;;;;;;;;;10.00;99.90;;;;;;5066670;28;19924;-64
2023/05/15 04:59:02;;;;;;;;;;;10.00;99.90;;;;;;5078183;28;20425;-64
2023/05/15 05:01:29;;;;;;;;;;;10.00;99.90;;;;;;5066565;28;19925;-64
2023/05/15 05:04:00;;;;;;;;;;;10.00;99.90;;;;;;5060266;28;19924;-64
2023/05/15 05:06:32;;;;;;;;;;;10.00;99.90;;;;;;5066253;28;20389;-64
2023/05/15 05:08:59;;;;;;;;;;;10.00;99.90;;;;;;5059413;28;19992;-64
2023/05/15 05:11:30;;;;;;;;;;;10.00;99.90;;;;;;5056612;28;19924;-64
2023/05/15 05:14:02;;;;;;;;;;;10.00;99.90;;;;;;5061892;28;20013;-64
2023/05/15 05:16:29;;;;;;;;;;;10.10;99.90;;;;;;5056633;28;19986;-64
2023/05/15 05:19:01;;;;;;;;;;;10.10;99.90;;;;;;5062118;28;20352;-64
2023/05/15 05:21:33;;;;;;;;;;;10.10;99.90;;;;;;5065861;28;19928;-64
2023/05/15 05:24:04;;;;;;;;;;;10.20;99.90;;;;;;5080905;28;19929;-64
2023/05/15 05:26:36;;;;;;;;;;;10.30;99.90;;;;;;5065342;28;19924;-64
2023/05/15 05:29:08;;;;;;;;;;;10.30;99.90;;;;;;5064752;28;20021;-64
2023/05/15 05:31:34;;;;;;;;;;;10.40;99.90;;;;;;5059277;28;19936;-64
2023/05/15 05:34:08;;;;;;;;;;;10.40;99.90;;;;;;5063380;28;20454;-64
2023/05/15 05:36:39;;;;;;;;;;;10.50;99.90;;;;;;5062039;28;20355;-64
2023/05/15 05:39:06;;;;;;;;;;;10.50;99.90;;;;;;5063279;28;19929;-64
2023/05/15 05:41:38;;;;;;;;;;;10.60;99.90;;;;;;5048560;28;19928;-64
2023/05/15 05:44:10;;;;;;;;;;;10.70;99.90;;;;;;5069071;28;19990;-64
2023/05/15 05:46:41;;;;;;;;;;;10.80;99.90;;;;;;5066363;28;19956;-64
2023/05/15 05:49:13;;;;;;;;;;;10.90;99.90;;;;;;5060945;28;20505;-64
2023/05/15 05:51:45;;;;;;;;;;;10.90;99.90;;;;;;5073543;28;20293;-64
2023/05/15 05:54:17;;;;;;;;;;;10.90;99.90;;;;;;5071278;28;19933;-64
2023/05/15 05:56:49;;;;;;;;;;;11.00;99.90;;;;;;5067479;28;19959;-64
2023/05/15 05:59:21;;;;;;;;;;;11.00;99.90;;;;;;5056041;28;20379;-64
2023/05/15 06:01:53;;;;;;;;;;;11.10;99.90;;;;;;5062002;28;19933;-64
2023/05/15 06:04:25;;;;;;;;;;;11.10;99.90;;;;;;5071067;28;19924;-64
2023/05/15 06:06:57;;;;;;;;;;;11.10;99.90;;;;;;5064981;28;19974;-64
2023/05/15 06:09:29;;;;;;;;;;;11.20;99.90;;;;;;5064197;28;19925;-64
2023/05/15 06:11:56;;;;;;;;;;;11.20;99.90;;;;;;5064298;28;19933;-64
2023/05/15 06:14:27;;;;;;;;;;;11.30;99.90;;;;;;5066546;28;19925;-64
2023/05/15 06:16:59;;;;;;;;;;;11.30;99.90;;;;;;5063924;28;19988;-64
2023/05/15 06:19:31;;;;;;;;;;;11.40;99.90;;;;;;5058127;28;19936;-64
2023/05/15 06:22:03;;;;;;;;;;;11.40;99.90;;;;;;5055686;28;19925;-64
2023/05/15 06:24:30;;;;;;;;;;;11.40;99.90;;;;;;5063922;28;19951;-64
2023/05/15 06:27:01;;;;;;;;;;;11.40;99.90;;;;;;5067978;28;19998;-64
2023/05/15 06:29:34;;;;;;;;;;;11.50;99.90;;;;;;5067654;28;20585;-64
2023/05/15 06:32:06;;;;;;;;;;;11.50;99.90;;;;;;5064694;28;20021;-64
2023/05/15 06:34:33;;;;;;;;;;;11.40;99.90;;;;;;5065769;28;19924;-67
2023/05/15 06:37:00;;;;;;;;;;;11.30;99.90;;;;;;5066445;28;19925;-65
2023/05/15 06:39:32;;;;;;;;;;;11.20;99.90;;;;;;5069163;28;19933;-65
2023/05/15 06:42:04;;;;;;;;;;;11.20;99.90;;;;;;5068415;28;19924;-65
2023/05/15 06:44:36;;;;;;;;;;;11.10;99.90;;;;;;5071041;28;19970;-64
2023/05/15 06:47:07;;;;;;;;;;;11.20;99.90;;;;;;5076173;28;19948;-65
2023/05/15 06:49:39;;;;;;;;;;;11.20;99.90;;;;;;5060807;28;20453;-65
2023/05/15 06:52:06;;;;;;;;;;;11.20;99.90;;;;;;5062827;28;20316;-65
2023/05/15 06:54:39;;;;;;;;;;;11.20;99.90;;;;;;5061645;28;19928;-65
2023/05/15 06:57:11;;;;;;;;;;;11.20;99.90;;;;;;5063541;28;19932;-64
2023/05/15 06:59:42;;;;;;;;;;;11.20;99.90;;;;;;5065394;28;19924;-64
2023/05/15 07:02:14;;;;;;;;;;;11.20;99.90;;;;;;5067952;28;19924;-64
2023/05/15 07:04:46;;;;;;;;;;;11.30;99.90;;;;;;5065796;28;20355;-65
2023/05/15 07:07:18;;;;;;;;;;;11.40;99.90;;;;;;5063753;28;19982;-64
2023/05/15 07:09:50;;;;;;;;;;;11.40;99.90;;;;;;5068537;28;20292;-64
2023/05/15 07:12:22;;;;;;;;;;;11.50;99.90;;;;;;5062112;28;19936;-64
2023/05/15 07:14:48;;;;;;;;;;;11.60;99.90;;;;;;5071335;28;19928;-64
2023/05/15 07:17:15;;;;;;;;;;;11.70;99.90;;;;;;5063637;28;19931;-64
2023/05/15 07:19:46;;;;;;;;;;;11.80;99.90;;;;;;5070571;28;19925;-64
2023/05/15 07:22:18;;;;;;;;;;;11.90;99.90;;;;;;5062446;28;20057;-65
2023/05/15 07:24:46;;;;;;;;;;;12.10;99.90;;;;;;5063509;28;19968;-64
2023/05/15 07:27:13;;;;;;;;;;;12.20;99.90;;;;;;5062606;28;20358;-64
2023/05/15 07:29:45;;;;;;;;;;;12.40;99.90;;;;;;5063446;28;19985;-64
2023/05/15 07:32:17;;;;;;;;;;;12.50;99.90;;;;;;5064319;28;19925;-65
2023/05/15 07:34:48;;;;;;;;;;;12.60;99.90;;;;;;5063038;28;19932;-64
2023/05/15 07:37:20;;;;;;;;;;;12.60;99.90;;;;;;5060763;28;19978;-64
2023/05/15 07:39:52;;;;;;;;;;;12.60;99.90;;;;;;5060025;28;19974;-65
2023/05/15 07:42:18;;;;;;;;;;;12.60;99.90;;;;;;5057342;28;20315;-64
2023/05/15 07:44:50;;;;;;;;;;;12.60;99.90;;;;;;5059652;28;19928;-64
2023/05/15 07:47:22;;;;;;;;;;;12.60;99.90;;;;;;5061025;28;20457;-65
2023/05/15 07:49:53;;;;;;;;;;;12.60;99.90;;;;;;5059578;28;19964;-65
2023/05/15 07:52:25;;;;;;;;;;;12.60;99.90;;;;;;5062219;28;19978;-65
2023/05/15 07:54:57;;;;;;;;;;;12.70;99.90;;;;;;5063420;28;19929;-65
2023/05/15 07:57:25;;;;;;;;;;;12.80;99.90;;;;;;5063174;28;19931;-64
2023/05/15 07:59:52;;;;;;;;;;;12.90;99.90;;;;;;5060456;28;19929;-64
2023/05/15 08:02:24;;;;;;;;;;;13.00;99.90;;;;;;5057709;28;19929;-64
2023/05/15 08:04:51;;;;;;;;;;;13.10;99.90;;;;;;5056620;28;19935;-64
2023/05/15 08:07:23;;;;;;;;;;;13.20;99.90;;;;;;5059863;28;19928;-64
2023/05/15 08:09:54;;;;;;;;;;;13.20;99.90;;;;;;5052937;28;19935;-64
2023/05/15 08:12:26;;;;;;;;;;;13.40;99.90;;;;;;5059271;28;19932;-64
2023/05/15 08:14:58;;;;;;;;;;;13.40;99.90;;;;;;5062237;28;19935;-64
2023/05/15 08:17:30;;;;;;;;;;;13.50;99.90;;;;;;5065128;28;19986;-64
2023/05/15 08:19:57;;;;;;;;;;;13.30;99.90;;;;;;5064218;28;19924;-64
2023/05/15 08:22:29;;;;;;;;;;;13.20;99.90;;;;;;5065616;28;20403;-64
2023/05/15 08:25:02;;;;;;;;;;;13.30;99.90;;;;;;5057906;28;19929;-64
2023/05/15 08:27:34;;;;;;;;;;;13.40;99.90;;;;;;5063188;28;19940;-64
2023/05/15 08:30:07;;;;;;;;;;;13.40;99.90;;;;;;5058664;28;19925;-64
2023/05/15 08:32:39;;;;;;;;;;;13.40;99.90;;;;;;5062380;28;19924;-64
2023/05/15 08:35:10;;;;;;;;;;;13.40;99.90;;;;;;5058517;28;19928;-64
2023/05/15 08:37:37;;;;;;;;;;;13.40;99.90;;;;;;5058087;28;19939;-64
2023/05/15 08:40:09;;;;;;;;;;;13.40;99.90;;;;;;5064236;28;19929;-64
2023/05/15 08:42:43;;;;;;;;;;;13.50;99.90;;;;;;5063992;28;19925;-64
2023/05/15 08:45:15;;;;;;;;;;;13.70;99.90;;;;;;5061219;28;20006;-64
2023/05/15 08:47:42;;;;;;;;;;;13.80;99.90;;;;;;5060083;28;20373;-64
2023/05/15 08:50:15;;;;;;;;;;;14.00;99.90;;;;;;5058233;28;20473;-64
2023/05/15 08:52:48;;;;;;;;;;;14.00;99.90;;;;;;5060494;28;19929;-64
2023/05/15 08:55:22;;;;;;;;;;;14.10;99.90;;;;;;5057515;28;19975;-64
2023/05/15 08:57:54;;;;;;;;;;;14.20;99.90;;;;;;5059578;28;19928;-64
2023/05/15 09:00:26;;;;;;;;;;;14.20;99.90;;;;;;5064906;28;19964;-64
2023/05/15 09:02:59;;;;;;;;;;;14.20;99.90;;;;;;5065902;28;19970;-65
2023/05/15 09:05:31;;;;;;;;;;;14.30;99.90;;;;;;5064470;28;19982;-65
2023/05/15 09:08:03;;;;;;;;;;;14.50;99.90;;;;;;5051047;28;19960;-65
2023/05/15 09:10:36;;;;;;;;;;;14.50;99.90;;;;;;5068578;28;19924;-65
2023/05/15 09:13:04;;;;;;;;;;;14.70;99.90;;;;;;5063800;28;19924;-64
2023/05/15 09:15:36;;;;;;;;;;;14.80;99.90;;;;;;5056698;28;20309;-65
2023/05/15 09:18:05;;;;;;;;;;;14.70;99.90;;;;;;5054279;28;19928;-64
2023/05/15 09:20:38;;;;;;;;;;;14.90;99.90;;;;;;5057153;28;20022;-64
2023/05/15 09:23:20;;;;;;;;;;;15.00;99.90;;;;;;5063804;28;20351;-65
2023/05/15 09:25:51;;;;;;;;;;;15.10;99.90;;;;;;5064074;28;20285;-64
2023/05/15 09:28:26;;;;;;;;;;;15.40;99.90;;;;;;5059490;28;19941;-64
2023/05/15 09:30:59;;;;;;;;;;;15.60;99.90;;;;;;5048792;28;19955;-65
2023/05/15 09:33:35;;;;;;;;;;;15.70;99.90;;;;;;5062868;28;19940;-64
2023/05/15 09:36:03;;;;;;;;;;;15.70;99.90;;;;;;5058314;28;19924;-64
2023/05/15 09:38:40;;;;;;;;;;;15.40;99.90;;;;;;5057755;28;19933;-64
2023/05/15 09:41:07;;;;;;;;;;;15.30;99.90;;;;;;5052018;28;19928;-64
2023/05/15 09:43:38;;;;;;;;;;;15.20;99.90;;;;;;5060995;28;19986;-64
2023/05/15 09:46:11;;;;;;;;;;;15.20;99.90;;;;;;5062592;28;19925;-64
2023/05/15 09:48:44;;;;;;;;;;;15.10;99.90;;;;;;5063460;28;20007;-64
2023/05/15 09:51:18;;;;;;;;;;;15.10;99.90;;;;;;5060629;28;19972;-65
2023/05/15 09:53:53;;;;;;;;;;;15.10;99.90;;;;;;5063334;28;20297;-64
2023/05/15 09:56:21;;;;;;;;;;;15.20;99.90;;;;;;5064112;28;19924;-64
2023/05/15 09:58:53;;;;;;;;;;;15.30;99.90;;;;;;5064991;28;20533;-64
2023/05/15 10:01:26;;;;;;;;;;;15.50;99.90;;;;;;5064744;28;20434;-64
2023/05/15 10:04:02;;;;;;;;;;;15.40;99.90;;;;;;5066179;28;19931;-64
2023/05/15 10:06:35;;;;;;;;;;;15.10;99.90;;;;;;5064717;28;19932;-64
2023/05/15 10:09:02;;;;;;;;;;;15.00;99.90;;;;;;5068560;28;19932;-64
2023/05/15 10:11:35;;;;;;;;;;;14.70;99.90;;;;;;5063726;28;19928;-64
2023/05/15 10:14:08;;;;;;;;;;;14.60;99.90;;;;;;5069525;28;19986;-65
2023/05/15 10:16:40;;;;;;;;;;;14.50;99.90;;;;;;5069227;28;20580;-65
2023/05/15 10:19:08;;;;;;;;;;;14.50;99.90;;;;;;5071579;28;19928;-65
2023/05/15 10:21:40;;;;;;;;;;;14.30;99.90;;;;;;5069230;28;19928;-65
2023/05/15 10:24:14;;;;;;;;;;;14.20;99.90;;;;;;5065875;28;20589;-65
2023/05/15 10:26:46;;;;;;;;;;;14.20;99.90;;;;;;5072404;28;20304;-65
2023/05/15 10:29:21;;;;;;;;;;;14.30;99.90;;;;;;5063642;28;20019;-66
2023/05/15 10:31:52;;;;;;;;;;;14.30;99.90;;;;;;5060578;28;19967;-66
2023/05/15 10:34:24;;;;;;;;;;;14.30;99.90;;;;;;5060546;28;19925;-65
2023/05/15 10:36:57;;;;;;;;;;;14.30;99.90;;;;;;5064018;28;20009;-65
2023/05/15 10:39:29;;;;;;;;;;;14.40;99.90;;;;;;5055459;28;19978;-65
2023/05/15 10:41:56;;;;;;;;;;;14.50;99.90;;;;;;5065133;28;19934;-65
2023/05/15 10:44:28;;;;;;;;;;;14.70;99.90;;;;;;5064587;28;19978;-65
2023/05/15 10:46:54;;;;;;;;;;;14.90;99.90;;;;;;5066264;28;19972;-65
2023/05/15 10:49:26;;;;;;;;;;;15.10;99.90;;;;;;5064300;28;20343;-65
2023/05/15 10:51:59;;;;;;;;;;;15.20;99.90;;;;;;5064721;28;20474;-65
2023/05/15 10:54:31;;;;;;;;;;;15.50;99.90;;;;;;5062199;28;20014;-65
2023/05/15 10:57:03;;;;;;;;;;;15.70;99.90;;;;;;5063081;28;19928;-65
2023/05/15 10:59:35;;;;;;;;;;;16.00;99.90;;;;;;5061558;28;19929;-65
2023/05/15 11:02:19;;;;;;;;;;;16.00;99.90;;;;;;5077861;28;19944;-65
2023/05/15 11:04:46;;;;;;;;;;;16.20;99.90;;;;;;5061898;28;19928;-65
2023/05/15 11:07:19;;;;;;;;;;;16.50;99.90;;;;;;5059794;28;19932;-65
2023/05/15 11:09:53;;;;;;;;;;;16.50;99.90;;;;;;5068841;28;19924;-65
2023/05/15 11:12:45;;;;;;;;;;;16.60;99.90;;;;;;5064519;28;19975;-65
2023/05/15 11:15:17;;;;;;;;;;;16.60;99.90;;;;;;5064085;28;19924;-65
2023/05/15 11:18:05;;;;;;;;;;;16.60;99.90;;;;;;5066964;28;19932;-64
2023/05/15 11:20:41;;;;;;;;;;;16.60;99.90;;;;;;5066930;28;19974;-65
2023/05/15 11:23:08;;;;;;;;;;;16.70;99.90;;;;;;5061943;28;19936;-64
2023/05/15 11:25:40;;;;;;;;;;;16.80;99.90;;;;;;5064297;28;19925;-64
2023/05/15 11:28:20;;;;;;;;;;;16.90;99.90;;;;;;5063186;28;20392;-64
2023/05/15 11:30:53;;;;;;;;;;;16.90;99.90;;;;;;5060674;28;19925;-64
2023/05/15 11:33:28;;;;;;;;;;;16.80;99.90;;;;;;5064153;28;20443;-64
2023/05/15 11:36:00;;;;;;;;;;;16.90;99.90;;;;;;5067367;28;19924;-65
2023/05/15 11:38:35;;;;;;;;;;;16.90;99.90;;;;;;5063335;28;19928;-65
2023/05/15 11:41:18;;;;;;;;;;;17.00;99.90;;;;;;5062287;28;19932;-65
2023/05/15 11:43:49;;;;;;;;;;;16.90;99.90;;;;;;5061322;28;20018;-64
2023/05/15 11:46:16;;;;;;;;;;;16.60;99.90;;;;;;5060761;28;19925;-64
2023/05/15 11:48:44;;;;;;;;;;;16.40;99.90;;;;;;5058256;28;20411;-65
2023/05/15 11:51:20;;;;;;;;;;;16.40;99.90;;;;;;5055371;28;19933;-64
2023/05/15 11:53:53;;;;;;;;;;;16.10;99.90;;;;;;5050199;28;19967;-64
2023/05/15 11:56:29;;;;;;;;;;;16.00;99.90;;;;;;5065012;28;19928;-64
2023/05/15 11:59:01;;;;;;;;;;;15.90;99.90;;;;;;5067407;28;20312;-64
2023/05/15 12:01:44;;;;;;;;;;;15.90;99.90;;;;;;5064242;28;19929;-64
2023/05/15 12:04:16;;;;;;;;;;;16.10;99.90;;;;;;5065657;28;20397;-64
2023/05/15 12:06:48;;;;;;;;;;;16.40;99.90;;;;;;5059897;28;19929;-64
2023/05/15 12:09:17;;;;;;;;;;;16.50;99.90;;;;;;5064365;28;19979;-64
2023/05/15 12:11:49;;;;;;;;;;;16.60;99.90;;;;;;5058257;28;19925;-64
2023/05/15 12:14:27;;;;;;;;;;;16.90;99.90;;;;;;5069961;28;19987;-64
2023/05/15 12:17:01;;;;;;;;;;;17.10;99.90;;;;;;5054619;28;19959;-64
2023/05/15 12:19:33;;;;;;;;;;;17.20;99.90;;;;;;5059918;28;19997;-64
2023/05/15 12:22:06;;;;;;;;;;;17.30;99.90;;;;;;5064966;28;19935;-65
2023/05/15 12:24:39;;;;;;;;;;;17.50;99.90;;;;;;5064991;28;20401;-65
2023/05/15 12:27:11;;;;;;;;;;;17.30;99.90;;;;;;5066908;28;19924;-64
2023/05/15 12:29:43;;;;;;;;;;;16.70;99.90;;;;;;5060812;28;19982;-64
2023/05/15 12:32:14;;;;;;;;;;;15.90;99.90;;;;;;5056596;28;19931;-64
2023/05/15 12:34:46;;;;;;;;;;;15.40;99.90;;;;;;5046616;28;20325;-64
2023/05/15 12:37:13;;;;;;;;;;;15.00;99.90;;;;;;5064515;28;19928;-64
2023/05/15 12:39:55;;;;;;;;;;;14.50;99.90;;;;;;5063157;28;19925;-65
2023/05/15 12:42:22;;;;;;;;;;;14.00;99.90;;;;;;5065195;28;20413;-65
2023/05/15 12:44:55;;;;;;;;;;;13.60;99.90;;;;;;5067387;28;19932;-65
2023/05/15 12:47:27;;;;;;;;;;;13.40;99.90;;;;;;5065041;28;19932;-65
2023/05/15 12:49:58;;;;;;;;;;;13.30;99.90;;;;;;5068355;28;19932;-65
2023/05/15 12:52:30;;;;;;;;;;;13.20;99.90;;;;;;5065526;28;19955;-65
2023/05/15 12:54:59;;;;;;;;;;;12.90;99.90;;;;;;5061133;28;19935;-65
2023/05/15 12:57:26;;;;;;;;;;;12.70;99.90;;;;;;5063828;28;19925;-65
2023/05/15 12:59:58;;;;;;;;;;;12.80;99.90;;;;;;5067609;28;19936;-65
2023/05/15 13:02:30;;;;;;;;;;;12.80;99.90;;;;;;5063788;28;20430;-65
2023/05/15 13:05:03;;;;;;;;;;;12.80;99.90;;;;;;5065332;28;19951;-65
2023/05/15 13:07:35;;;;;;;;;;;12.70;99.90;;;;;;5066256;28;19940;-65
2023/05/15 13:10:05;;;;;;;;;;;12.60;99.90;;;;;;5066508;28;19931;-65
2023/05/15 13:12:37;;;;;;;;;;;12.60;99.90;;;;;;5066057;28;19997;-65
2023/05/15 13:15:05;;;;;;;;;;;12.60;99.90;;;;;;5069797;28;19964;-65
2023/05/15 13:17:33;;;;;;;;;;;12.60;99.90;;;;;;5069635;28;19928;-64
2023/05/15 13:20:06;;;;;;;;;;;12.50;99.90;;;;;;5070027;28;19928;-65
2023/05/15 13:22:37;;;;;;;;;;;12.40;99.90;;;;;;5066075;28;19931;-63
2023/05/15 13:25:09;;;;;;;;;;;12.30;99.90;;;;;;5065561;28;19928;-64
2023/05/15 13:27:41;;;;;;;;;;;12.40;99.90;;;;;;5065140;28;19928;-65
2023/05/15 13:30:13;;;;;;;;;;;12.40;99.90;;;;;;5069638;28;19982;-64
2023/05/15 13:32:45;;;;;;;;;;;12.40;99.90;;;;;;5062748;28;19933;-65
2023/05/15 13:35:17;;;;;;;;;;;12.30;99.90;;;;;;5064922;28;19929;-65
2023/05/15 13:37:44;;;;;;;;;;;12.30;99.90;;;;;;5064684;28;19933;-64
2023/05/15 13:40:15;;;;;;;;;;;12.30;99.90;;;;;;5063084;28;20405;-64
2023/05/15 13:42:47;;;;;;;;;;;12.20;99.90;;;;;;5068926;28;19933;-65
2023/05/15 13:45:15;;;;;;;;;;;12.10;99.90;;;;;;5067443;28;19935;-66
2023/05/15 13:47:46;;;;;;;;;;;12.10;99.90;;;;;;5067538;28;19929;-64
2023/05/15 13:50:18;;;;;;;;;;;12.20;99.90;;;;;;5066555;28;20415;-64
2023/05/15 13:52:50;;;;;;;;;;;12.10;99.90;;;;;;5082990;28;20312;-64
2023/05/15 13:55:17;;;;;;;;;;;12.10;99.90;;;;;;5069290;28;20416;-64
2023/05/15 13:57:50;;;;;;;;;;;12.00;99.90;;;;;;5069933;28;19978;-64
2023/05/15 14:00:22;;;;;;;;;;;12.10;99.90;;;;;;5071644;28;19928;-70
2023/05/15 14:02:48;;;;;;;;;;;12.10;99.90;;;;;;5072705;28;20023;-66
2023/05/15 14:05:15;;;;;;;;;;;12.20;99.90;;;;;;5073219;28;19928;-65
2023/05/15 14:07:47;;;;;;;;;;;12.30;99.90;;;;;;5065683;28;19932;-65
2023/05/15 14:10:14;;;;;;;;;;;12.40;99.90;;;;;;5070295;28;19929;-66
2023/05/15 14:12:42;;;;;;;;;;;12.40;99.90;;;;;;5070173;28;19928;-66
2023/05/15 14:15:10;;;;;;;;;;;12.40;99.90;;;;;;5067541;28;19933;-66
2023/05/15 14:17:42;;;;;;;;;;;12.30;99.90;;;;;;5062939;28;19955;-65
2023/05/15 14:20:14;;;;;;;;;;;12.30;99.90;;;;;;5067259;28;19928;-65
2023/05/15 14:22:46;;;;;;;;;;;12.30;99.90;;;;;;5062474;28;19998;-65
2023/05/15 14:25:18;;;;;;;;;;;12.30;99.90;;;;;;5062574;28;19932;-65
2023/05/15 14:27:49;;;;;;;;;;;12.20;99.90;;;;;;5075615;28;19932;-65
2023/05/15 14:30:21;;;;;;;;;;;12.10;99.90;;;;;;5062288;28;19979;-65
2023/05/15 14:32:53;;;;;;;;;;;12.00;99.90;;;;;;5067416;28;19924;-65
2023/05/15 14:35:20;;;;;;;;;;;11.90;99.90;;;;;;5074905;28;20063;-65
2023/05/15 14:37:52;;;;;;;;;;;11.90;99.90;;;;;;5063537;28;19947;-65
2023/05/15 14:40:19;;;;;;;;;;;11.90;99.90;;;;;;5059738;28;20300;-65
2023/05/15 14:42:51;;;;;;;;;;;12.00;99.90;;;;;;5056587;28;19929;-66